KEFK

Northeast Kingdom International Airport

Newport, Vermont, USA
METAR KEFK 261335Z AUTO 00000KT 5SM RA SCT030 BKN085 OVC100 17/16 A2978 RMK AO2 T01710163
Observed Flight Rules
May-26 @ 13:35 UTC (5 minutes ago) Marginal Visual Flight Rules
Visibility Clouds Conditions
5 miles
  • Scattered at 3,000' AGL
  • Broken at 8,500' AGL
  • Overcast at 10,000' AGL
  • Rain
Temperatures Readings
Current 17°C / 63°F
Dewpoint 16°C / 61°F
Humidity 94%
Altimeter 29.78" Hg
Pressure 1008 hPa
Elevation 284
METAR KEFK 261335Z AUTO 00000KT 5SM RA SCT030 BKN085 OVC100 17/16 A2978 RMK AO2 T01710163
Observed Flight Rules
May-26 @ 13:35 UTC
(5 minutes ago)
MVFR
Clouds
  • Scattered at 3,000' AGL
  • Broken at 8,500' AGL
  • Overcast at 10,000' AGL
Conditions
  • Rain
Temperature Dewpoint
17°C / 63°F 16°C / 61°F
Humidity Altimeter Pressure
94% 29.78" Hg 1008 hPa